createdAt,value
2023-09-05T00:02:22.625Z,4.97
2023-09-05T00:04:50.069Z,4.30
2023-09-05T00:07:19.648Z,3.83
2023-09-05T00:09:48.864Z,4.60
2023-09-05T00:12:16.410Z,4.05
2023-09-05T00:14:43.348Z,4.70
2023-09-05T00:17:10.275Z,4.45
2023-09-05T00:19:37.298Z,4.53
2023-09-05T00:22:04.376Z,4.97
2023-09-05T00:24:42.465Z,4.65
2023-09-05T00:27:13.221Z,4.13
2023-09-05T00:29:41.563Z,4.45
2023-09-05T00:32:09.351Z,5.07
2023-09-05T00:34:39.572Z,4.70
2023-09-05T00:37:10.749Z,4.85
2023-09-05T00:39:42.286Z,5.10
2023-09-05T00:42:12.303Z,5.13
2023-09-05T00:44:39.357Z,5.22
2023-09-05T00:47:06.711Z,4.78
2023-09-05T00:49:40.583Z,4.15
2023-09-05T00:52:12.329Z,5.22
2023-09-05T00:54:42.368Z,5.07
2023-09-05T00:57:15.300Z,4.85
2023-09-05T00:59:43.846Z,5.03
2023-09-05T01:02:13.467Z,5.50
2023-09-05T01:04:43.393Z,4.97
2023-09-05T01:07:23.432Z,5.38
2023-09-05T01:10:19.574Z,4.93
2023-09-05T01:12:46.525Z,5.65
2023-09-05T01:15:19.072Z,4.65
2023-09-05T01:17:46.313Z,5.00
2023-09-05T01:20:17.494Z,4.90
2023-09-05T01:23:01.975Z,6.13
2023-09-05T01:25:31.448Z,5.80
2023-09-05T01:28:01.493Z,5.80
2023-09-05T01:30:31.464Z,4.90
2023-09-05T01:33:01.566Z,5.53
2023-09-05T01:35:28.449Z,5.63
2023-09-05T01:37:55.240Z,5.18
2023-09-05T01:42:54.693Z,6.13
2023-09-05T01:45:21.802Z,5.13
2023-09-05T01:47:48.720Z,6.07
2023-09-05T01:50:15.654Z,6.40
2023-09-05T01:52:46.429Z,5.80
2023-09-05T01:55:18.541Z,5.40
2023-09-05T01:57:45.486Z,6.00
2023-09-05T02:00:12.964Z,5.28
2023-09-05T02:02:39.932Z,5.50
2023-09-05T02:05:08.265Z,5.75
2023-09-05T02:07:35.124Z,6.28
2023-09-05T02:12:29.211Z,5.95
2023-09-05T02:14:58.677Z,6.00
2023-09-05T02:17:25.716Z,5.95
2023-09-05T02:19:55.220Z,5.57
2023-09-05T02:22:21.994Z,5.90
2023-09-05T02:27:15.781Z,6.23
2023-09-05T02:46:48.113Z,6.20
2023-09-05T02:49:19.364Z,5.85
2023-09-05T02:51:49.485Z,5.63
2023-09-05T02:54:16.460Z,6.25
2023-09-05T02:56:43.349Z,5.57
2023-09-05T02:59:10.211Z,5.75
2023-09-05T03:01:37.561Z,5.30
2023-09-05T03:04:08.969Z,4.97
2023-09-05T03:06:37.118Z,5.43
2023-09-05T03:09:06.849Z,6.03
2023-09-05T03:11:38.797Z,5.10
2023-09-05T03:14:05.718Z,5.13
2023-09-05T03:16:34.980Z,5.15
2023-09-05T03:19:04.802Z,5.30
2023-09-05T03:21:34.659Z,5.05
2023-09-05T03:24:04.821Z,4.78
2023-09-05T03:26:32.025Z,4.78
2023-09-05T03:29:01.245Z,5.60
2023-09-05T03:31:31.513Z,5.35
2023-09-05T03:33:58.538Z,4.80
2023-09-05T03:36:31.653Z,4.93
2023-09-05T03:38:59.749Z,5.07
2023-09-05T03:41:26.985Z,5.72
2023-09-05T03:43:59.155Z,5.05
2023-09-05T03:46:30.456Z,5.00
2023-09-05T03:48:58.750Z,5.63
2023-09-05T03:51:33.854Z,4.97
2023-09-05T03:54:03.668Z,4.75
2023-09-05T03:56:30.617Z,4.43
2023-09-05T03:58:59.988Z,4.22
2023-09-05T04:01:29.909Z,4.07
2023-09-05T04:03:59.928Z,4.88
2023-09-05T04:06:27.113Z,3.95
2023-09-05T04:08:55.120Z,4.78
2023-09-05T04:11:22.038Z,4.28
2023-09-05T04:13:53.227Z,4.78
2023-09-05T04:16:23.124Z,4.30
2023-09-05T04:18:50.422Z,3.95
2023-09-05T04:21:19.788Z,3.85
2023-09-05T04:23:59.445Z,5.00
2023-09-05T04:26:27.217Z,4.30
2023-09-05T04:28:54.102Z,4.55
2023-09-05T04:31:21.162Z,4.30
2023-09-05T04:33:51.938Z,4.55
2023-09-05T04:36:18.842Z,4.10
2023-09-05T04:38:52.644Z,4.05
2023-09-05T04:41:25.663Z,4.85
2023-09-05T04:43:52.803Z,4.57
2023-09-05T04:46:19.875Z,4.10
2023-09-05T04:48:46.766Z,4.65
2023-09-05T05:06:52.738Z,4.50
2023-09-05T05:09:57.712Z,4.43
2023-09-05T05:15:53.731Z,4.03
2023-09-05T05:19:13.258Z,4.35
2023-09-05T05:21:37.869Z,3.90
2023-09-05T05:24:14.020Z,4.45
2023-09-05T05:26:40.917Z,4.63
2023-09-05T05:41:27.521Z,5.40
2023-09-05T05:43:51.953Z,4.65
2023-09-05T05:46:21.615Z,5.20
2023-09-05T05:48:48.941Z,5.82
2023-09-05T05:51:15.915Z,6.15
2023-09-05T05:53:44.159Z,6.22
2023-09-05T05:56:14.160Z,5.82
2023-09-05T06:15:36.450Z,5.07
2023-09-05T06:20:52.842Z,4.38
2023-09-05T06:23:19.645Z,4.15
2023-09-05T06:28:15.402Z,4.20
2023-09-05T06:33:09.001Z,3.97
2023-09-05T06:35:39.562Z,4.20
2023-09-05T06:38:07.211Z,4.18
2023-09-05T06:40:36.705Z,3.60
2023-09-05T06:46:21.682Z,3.83
2023-09-05T06:54:03.920Z,3.70
2023-09-05T06:56:30.556Z,3.90
2023-09-05T06:58:59.020Z,3.83
2023-09-05T07:01:27.150Z,3.53
2023-09-05T07:03:53.897Z,3.38
2023-09-05T07:08:59.261Z,3.92
2023-09-05T07:15:50.632Z,3.50
2023-09-05T07:26:04.601Z,3.58
2023-09-05T07:31:57.261Z,3.28
2023-09-05T07:54:05.261Z,2.97
2023-09-05T08:11:05.566Z,3.13
2023-09-05T08:40:34.100Z,2.95
2023-09-05T08:47:23.770Z,2.33
2023-09-05T08:49:52.249Z,3.70
2023-09-05T08:52:28.460Z,3.00
2023-09-05T08:55:17.883Z,2.88
2023-09-05T08:57:49.180Z,2.33
2023-09-05T09:00:46.643Z,2.35
2023-09-05T09:03:30.202Z,2.40
2023-09-05T09:06:20.295Z,2.15
2023-09-05T09:08:47.088Z,2.08
2023-09-05T09:11:28.316Z,2.08
2023-09-05T09:14:23.983Z,1.80
2023-09-05T09:17:09.204Z,1.95
2023-09-05T09:20:17.436Z,2.15
2023-09-05T09:22:47.028Z,2.22
2023-09-05T09:32:09.001Z,2.08
2023-09-05T09:46:27.984Z,1.45
2023-09-05T09:56:36.377Z,1.60
2023-09-05T10:06:44.785Z,2.00
2023-09-05T11:28:07.983Z,1.88
2023-09-05T11:30:47.262Z,1.80
2023-09-05T11:37:53.583Z,1.65
2023-09-05T11:40:56.597Z,1.90
2023-09-05T11:45:16.957Z,1.80
2023-09-05T11:48:41.567Z,1.33
2023-09-05T11:51:41.943Z,2.00
2023-09-05T11:54:10.473Z,1.45
2023-09-05T11:56:38.776Z,1.67
2023-09-05T11:59:05.505Z,1.60
2023-09-05T12:01:46.275Z,1.90
2023-09-05T12:04:22.922Z,1.40
2023-09-05T12:06:56.597Z,1.40
2023-09-05T12:10:22.198Z,1.50
2023-09-05T12:12:21.312Z,1.50
2023-09-05T12:15:12.157Z,1.40
2023-09-05T12:17:50.303Z,2.08
2023-09-05T12:20:30.289Z,1.70
2023-09-05T12:22:59.862Z,1.33
2023-09-05T12:25:54.294Z,1.40
2023-09-05T12:28:35.317Z,1.58
2023-09-05T12:31:17.024Z,1.98
2023-09-05T12:34:31.672Z,1.40
2023-09-05T12:37:16.142Z,1.50
2023-09-05T12:39:48.870Z,2.00
2023-09-05T12:42:48.895Z,1.20
2023-09-05T12:45:30.936Z,1.40
2023-09-05T12:48:22.121Z,1.70
2023-09-05T13:13:03.388Z,1.45
2023-09-05T13:26:56.804Z,1.60
2023-09-05T13:29:24.099Z,1.45
2023-09-05T13:32:31.443Z,1.60
2023-09-05T13:34:59.031Z,1.50
2023-09-05T13:37:25.745Z,2.15
2023-09-05T13:39:53.209Z,1.50
2023-09-05T13:42:20.693Z,1.50
2023-09-05T13:50:27.121Z,1.17
2023-09-05T13:53:26.941Z,1.90
2023-09-05T13:55:54.276Z,1.42
2023-09-05T14:01:14.850Z,1.40
2023-09-05T14:03:51.733Z,1.30
2023-09-05T14:06:32.437Z,1.52
2023-09-05T14:08:59.207Z,1.70
2023-09-05T14:11:25.980Z,1.70
2023-09-05T14:14:00.493Z,1.25
2023-09-05T14:16:27.104Z,1.40
2023-09-05T14:18:54.243Z,1.50
2023-09-05T14:21:29.774Z,1.58
2023-09-05T14:26:48.183Z,1.25
2023-09-05T14:30:14.545Z,1.77
2023-09-05T14:32:44.383Z,1.40
2023-09-05T14:35:11.294Z,1.23
2023-09-05T14:37:40.116Z,1.33
2023-09-05T14:40:16.364Z,1.42
2023-09-05T14:42:43.504Z,1.43
2023-09-05T14:45:14.463Z,1.30
2023-09-05T14:47:56.204Z,1.52
2023-09-05T14:50:27.816Z,1.80
2023-09-05T14:53:02.796Z,1.40
2023-09-05T14:55:43.684Z,2.33
2023-09-05T14:58:10.409Z,1.75
2023-09-05T15:03:42.158Z,1.75
2023-09-05T15:06:09.774Z,1.83
2023-09-05T15:09:20.859Z,1.33
2023-09-05T15:11:33.265Z,2.05
2023-09-05T15:14:04.882Z,1.55
2023-09-05T15:16:46.440Z,1.92
2023-09-05T15:19:13.452Z,1.90
2023-09-05T15:21:41.568Z,1.35
2023-09-05T15:24:08.269Z,1.33
2023-09-05T15:26:47.989Z,1.23
2023-09-05T15:29:27.768Z,1.58
2023-09-05T15:31:54.657Z,1.35
2023-09-05T15:35:17.187Z,1.48
2023-09-05T15:37:51.886Z,1.52
2023-09-05T15:40:48.936Z,1.25
2023-09-05T15:43:17.408Z,1.40
2023-09-05T15:45:58.452Z,1.50
2023-09-05T15:48:27.172Z,1.30
2023-09-05T15:50:58.730Z,1.42
2023-09-05T15:53:25.624Z,1.92
2023-09-05T15:55:55.728Z,1.23
2023-09-05T15:58:26.516Z,1.55
2023-09-05T16:00:54.239Z,1.50
2023-09-05T16:03:22.521Z,1.65
2023-09-05T16:05:58.040Z,1.40
2023-09-05T16:08:47.090Z,1.45
2023-09-05T16:12:14.081Z,1.45
2023-09-05T16:22:00.220Z,1.52
2023-09-05T16:27:56.417Z,1.73
2023-09-05T16:30:39.816Z,1.80
2023-09-05T16:36:43.874Z,1.10
2023-09-05T16:45:53.809Z,1.95
2023-09-05T16:48:28.278Z,1.73
2023-09-05T16:50:55.366Z,1.80
2023-09-05T16:53:22.180Z,1.80
2023-09-05T16:55:48.696Z,1.63
2023-09-05T17:00:46.046Z,1.58
2023-09-05T17:03:13.096Z,1.55
2023-09-05T17:05:39.636Z,1.70
2023-09-05T17:08:07.236Z,1.58
2023-09-05T17:10:34.406Z,1.88
2023-09-05T17:13:01.056Z,1.42
2023-09-05T17:17:54.267Z,1.58
2023-09-05T17:22:47.385Z,2.22
2023-09-05T17:27:46.815Z,1.77
2023-09-05T17:30:13.525Z,2.00
2023-09-05T17:32:40.218Z,1.70
2023-09-05T17:37:33.353Z,1.67
2023-09-05T17:40:00.961Z,2.03
2023-09-05T17:42:27.512Z,2.00
2023-09-05T17:47:20.422Z,2.35
2023-09-05T17:49:46.937Z,2.17
2023-09-05T17:54:40.839Z,2.17
2023-09-05T17:59:35.850Z,2.30
2023-09-05T18:02:02.432Z,2.55
2023-09-05T18:06:58.221Z,2.22
2023-09-05T18:09:24.727Z,2.40
2023-09-05T18:11:51.253Z,2.15
2023-09-05T18:14:19.265Z,2.08
2023-09-05T18:16:46.524Z,2.10
2023-09-05T18:19:14.411Z,2.47
2023-09-05T18:21:44.725Z,2.25
2023-09-05T18:24:12.342Z,2.72
2023-09-05T18:26:39.102Z,2.22
2023-09-05T18:29:08.125Z,2.65
2023-09-05T18:31:35.658Z,2.70
2023-09-05T18:34:02.435Z,3.00
2023-09-05T18:36:29.004Z,2.55
2023-09-05T18:41:22.013Z,2.30
2023-09-05T18:43:51.112Z,2.17
2023-09-05T18:46:17.798Z,2.80
2023-09-05T18:48:56.225Z,3.47
2023-09-05T18:51:22.948Z,4.05
2023-09-05T18:53:50.461Z,3.38
2023-09-05T18:56:17.417Z,4.38
2023-09-05T18:58:43.980Z,4.38
2023-09-05T19:01:11.028Z,3.60
2023-09-05T19:03:38.031Z,4.22
2023-09-05T19:06:04.864Z,4.10
2023-09-05T19:08:31.382Z,4.25
2023-09-05T19:10:59.459Z,4.53
2023-09-05T19:13:27.607Z,4.13
2023-09-05T19:15:54.396Z,4.57
2023-09-05T19:18:55.847Z,3.97
2023-09-05T19:21:24.332Z,5.05
2023-09-05T19:23:54.641Z,4.50
2023-09-05T19:26:21.291Z,4.43
2023-09-05T19:28:47.809Z,4.80
2023-09-05T19:31:15.769Z,4.75
2023-09-05T19:33:43.196Z,4.47
2023-09-05T19:36:34.676Z,4.53
2023-09-05T19:39:03.037Z,4.80
2023-09-05T19:41:29.489Z,4.78
2023-09-05T19:43:56.235Z,4.82
2023-09-05T19:48:50.082Z,5.03
2023-09-05T19:51:16.984Z,4.63
2023-09-05T19:53:43.934Z,4.85
2023-09-05T19:56:11.226Z,4.32
2023-09-05T19:58:40.822Z,4.28
2023-09-05T20:01:08.703Z,4.85
2023-09-05T20:03:36.382Z,3.95
2023-09-05T20:06:04.216Z,4.28
2023-09-05T20:08:31.725Z,4.90
2023-09-05T20:10:58.703Z,4.60
2023-09-05T20:13:27.055Z,5.28
2023-09-05T20:15:55.575Z,5.10
2023-09-05T20:18:24.333Z,4.60
2023-09-05T20:20:57.045Z,4.93
2023-09-05T20:23:25.283Z,4.80
2023-09-05T20:25:52.072Z,5.32
2023-09-05T20:30:52.901Z,4.18
2023-09-05T20:33:20.122Z,4.50
2023-09-05T20:35:46.654Z,4.65
2023-09-05T20:38:15.628Z,4.47
2023-09-05T20:40:45.526Z,4.53
2023-09-05T20:43:12.039Z,4.55
2023-09-05T20:45:39.969Z,4.47
2023-09-05T20:48:11.335Z,4.55
2023-09-05T20:50:38.240Z,5.30
2023-09-05T20:53:05.257Z,4.68
2023-09-05T20:55:32.432Z,4.97
2023-09-05T20:58:03.147Z,4.63
2023-09-05T21:00:31.440Z,4.28
2023-09-05T21:02:58.318Z,4.32
2023-09-05T21:05:26.276Z,4.68
2023-09-05T21:07:52.845Z,3.80
2023-09-05T21:10:19.298Z,4.38
2023-09-05T21:12:45.845Z,3.95
2023-09-05T21:15:13.761Z,4.03
2023-09-05T21:17:41.552Z,3.95
2023-09-05T21:20:10.055Z,4.35
2023-09-05T21:22:36.644Z,3.83
2023-09-05T21:25:03.734Z,4.38
2023-09-05T21:27:31.109Z,3.92
2023-09-05T21:29:57.812Z,3.97
2023-09-05T21:32:24.446Z,3.75
2023-09-05T21:37:17.524Z,4.00
2023-09-05T21:39:44.095Z,3.80
2023-09-05T21:42:10.962Z,3.70
2023-09-05T21:44:37.513Z,4.05
2023-09-05T21:47:04.064Z,4.18
2023-09-05T21:49:30.510Z,4.80
2023-09-05T21:51:57.051Z,3.80
2023-09-05T21:54:24.604Z,4.38
2023-09-05T21:56:51.110Z,4.55
2023-09-05T21:59:17.554Z,4.25
2023-09-05T22:01:44.119Z,4.40
2023-09-05T22:06:37.398Z,4.45
2023-09-05T22:11:32.280Z,4.38
2023-09-05T22:13:58.811Z,4.55
2023-09-05T22:16:26.088Z,3.65
2023-09-05T22:18:55.957Z,3.50
2023-09-05T22:21:26.162Z,4.00
2023-09-05T22:23:55.097Z,3.92
2023-09-05T22:26:22.698Z,3.83
2023-09-05T22:28:49.296Z,3.63
2023-09-05T22:31:15.798Z,4.60
2023-09-05T22:33:42.344Z,4.30
2023-09-05T22:36:08.805Z,4.90
2023-09-05T22:38:35.471Z,4.38
2023-09-05T22:43:28.496Z,4.43
2023-09-05T22:45:55.068Z,4.00
2023-09-05T22:48:21.621Z,4.38
2023-09-05T22:50:48.149Z,4.18
2023-09-05T22:53:14.837Z,4.97
2023-09-05T22:58:08.513Z,4.40
2023-09-05T23:00:37.551Z,4.38
2023-09-05T23:03:04.368Z,5.28
2023-09-05T23:05:31.008Z,5.50
2023-09-05T23:07:57.570Z,4.63
2023-09-05T23:10:24.047Z,4.90
2023-09-05T23:12:50.585Z,5.07
2023-09-05T23:15:17.247Z,4.97
2023-09-05T23:20:12.550Z,4.55
2023-09-05T23:22:39.116Z,5.35
2023-09-05T23:25:06.586Z,5.35
2023-09-05T23:27:33.066Z,4.97
2023-09-05T23:29:59.993Z,5.15
2023-09-05T23:32:26.507Z,4.85
2023-09-05T23:34:53.007Z,4.90
2023-09-05T23:37:19.447Z,4.95
2023-09-05T23:39:47.277Z,4.43
2023-09-05T23:42:13.747Z,4.30
2023-09-05T23:44:41.835Z,5.40
2023-09-05T23:47:08.437Z,4.93
2023-09-05T23:49:37.461Z,4.85
2023-09-05T23:52:04.936Z,4.70
2023-09-05T23:54:31.458Z,5.47
2023-09-05T23:56:57.954Z,5.10
2023-09-05T23:59:24.409Z,5.07
